sensor_id;sensor_type;location;lat;lon;timestamp;pressure;altitude;pressure_sealevel;temperature;humidity
26376;BME280;30544;42.196;24.336;2022-07-06T00:01:53;99011.13;;;25.14;52.42
26376;BME280;30544;42.196;24.336;2022-07-06T00:04:22;98994.41;;;25.01;52.26
26376;BME280;30544;42.196;24.336;2022-07-06T00:06:52;99001.44;;;25.15;52.25
26376;BME280;30544;42.196;24.336;2022-07-06T00:09:19;98991.28;;;25.14;52.11
26376;BME280;30544;42.196;24.336;2022-07-06T00:11:46;98983.28;;;25.29;52.02
26376;BME280;30544;42.196;24.336;2022-07-06T00:14:16;98982.56;;;25.32;51.99
26376;BME280;30544;42.196;24.336;2022-07-06T00:16:43;98978.78;;;25.28;52.21
26376;BME280;30544;42.196;24.336;2022-07-06T00:19:10;98979.16;;;25.26;52.73
26376;BME280;30544;42.196;24.336;2022-07-06T00:21:38;98972.06;;;25.32;52.69
26376;BME280;30544;42.196;24.336;2022-07-06T00:24:05;98967.41;;;25.15;53.19
26376;BME280;30544;42.196;24.336;2022-07-06T00:26:32;98965.69;;;25.02;53.95
26376;BME280;30544;42.196;24.336;2022-07-06T00:28:59;98955.59;;;25.13;53.99
26376;BME280;30544;42.196;24.336;2022-07-06T00:31:25;98950.19;;;25.21;53.81
26376;BME280;30544;42.196;24.336;2022-07-06T00:33:52;98951.22;;;25.16;54.13
26376;BME280;30544;42.196;24.336;2022-07-06T00:36:19;98938.00;;;25.32;54.16
26376;BME280;30544;42.196;24.336;2022-07-06T00:38:48;98931.16;;;25.21;54.83
26376;BME280;30544;42.196;24.336;2022-07-06T00:41:14;98924.97;;;25.19;54.91
26376;BME280;30544;42.196;24.336;2022-07-06T00:43:49;98915.41;;;25.36;54.73
26376;BME280;30544;42.196;24.336;2022-07-06T00:46:17;98909.97;;;25.31;55.38
26376;BME280;30544;42.196;24.336;2022-07-06T00:48:44;98892.84;;;25.27;55.52
26376;BME280;30544;42.196;24.336;2022-07-06T00:51:11;98896.41;;;25.48;55.12
26376;BME280;30544;42.196;24.336;2022-07-06T00:53:38;98894.16;;;25.42;55.36
26376;BME280;30544;42.196;24.336;2022-07-06T00:56:11;98874.88;;;25.35;55.95
26376;BME280;30544;42.196;24.336;2022-07-06T00:58:37;98881.16;;;25.41;55.66
26376;BME280;30544;42.196;24.336;2022-07-06T01:01:04;98875.59;;;25.44;55.93
26376;BME280;30544;42.196;24.336;2022-07-06T01:03:32;98859.97;;;25.26;57.08
26376;BME280;30544;42.196;24.336;2022-07-06T01:05:59;98857.84;;;25.35;57.02
26376;BME280;30544;42.196;24.336;2022-07-06T01:08:26;98855.00;;;25.47;56.75
26376;BME280;30544;42.196;24.336;2022-07-06T01:10:53;98853.22;;;25.18;58.77
26376;BME280;30544;42.196;24.336;2022-07-06T01:13:22;98843.56;;;25.19;59.32
26376;BME280;30544;42.196;24.336;2022-07-06T01:15:49;98834.19;;;25.07;60.02
26376;BME280;30544;42.196;24.336;2022-07-06T01:18:16;98835.38;;;25.06;60.36
26376;BME280;30544;42.196;24.336;2022-07-06T01:20:44;98829.22;;;25.16;60.34
26376;BME280;30544;42.196;24.336;2022-07-06T01:23:11;98818.69;;;25.16;60.27
26376;BME280;30544;42.196;24.336;2022-07-06T01:25:39;98808.66;;;25.19;60.46
26376;BME280;30544;42.196;24.336;2022-07-06T01:28:05;98810.09;;;25.25;60.18
26376;BME280;30544;42.196;24.336;2022-07-06T01:30:35;98815.41;;;25.14;60.42
26376;BME280;30544;42.196;24.336;2022-07-06T01:33:02;98815.28;;;25.23;60.26
26376;BME280;30544;42.196;24.336;2022-07-06T01:35:31;98800.63;;;25.09;59.88
26376;BME280;30544;42.196;24.336;2022-07-06T01:38:01;98810.91;;;25.13;59.93
26376;BME280;30544;42.196;24.336;2022-07-06T01:40:28;98816.94;;;25.12;58.90
26376;BME280;30544;42.196;24.336;2022-07-06T01:42:57;98827.91;;;25.01;59.17
26376;BME280;30544;42.196;24.336;2022-07-06T01:45:25;98834.31;;;25.10;59.14
26376;BME280;30544;42.196;24.336;2022-07-06T01:47:51;98838.94;;;25.03;59.45
26376;BME280;30544;42.196;24.336;2022-07-06T01:50:18;98835.38;;;25.06;59.56
26376;BME280;30544;42.196;24.336;2022-07-06T01:52:45;98842.53;;;24.91;61.28
26376;BME280;30544;42.196;24.336;2022-07-06T01:55:13;98849.16;;;24.95;61.33
26376;BME280;30544;42.196;24.336;2022-07-06T01:57:40;98852.03;;;24.62;62.78
26376;BME280;30544;42.196;24.336;2022-07-06T02:00:08;98861.09;;;24.55;63.01
26376;BME280;30544;42.196;24.336;2022-07-06T02:02:35;98839.97;;;24.65;62.86
26376;BME280;30544;42.196;24.336;2022-07-06T02:05:02;98832.72;;;24.88;62.41
26376;BME280;30544;42.196;24.336;2022-07-06T02:07:31;98840.69;;;24.62;63.38
26376;BME280;30544;42.196;24.336;2022-07-06T02:09:58;98829.53;;;24.45;63.92
26376;BME280;30544;42.196;24.336;2022-07-06T02:12:26;98817.41;;;24.56;63.72
26376;BME280;30544;42.196;24.336;2022-07-06T02:14:53;98822.13;;;24.65;63.46
26376;BME280;30544;42.196;24.336;2022-07-06T02:17:20;98835.78;;;24.50;64.17
26376;BME280;30544;42.196;24.336;2022-07-06T02:19:47;98826.97;;;24.64;63.35
26376;BME280;30544;42.196;24.336;2022-07-06T02:22:14;98825.09;;;24.56;63.32
26376;BME280;30544;42.196;24.336;2022-07-06T02:24:41;98817.47;;;24.36;63.55
26376;BME280;30544;42.196;24.336;2022-07-06T02:27:08;98826.63;;;24.33;63.96
26376;BME280;30544;42.196;24.336;2022-07-06T02:29:36;98834.88;;;24.58;63.22
26376;BME280;30544;42.196;24.336;2022-07-06T02:32:03;98830.63;;;24.52;63.24
26376;BME280;30544;42.196;24.336;2022-07-06T02:34:30;98839.06;;;24.40;63.64
26376;BME280;30544;42.196;24.336;2022-07-06T02:36:57;98829.56;;;24.57;63.79
26376;BME280;30544;42.196;24.336;2022-07-06T02:39:25;98841.97;;;24.32;65.01
26376;BME280;30544;42.196;24.336;2022-07-06T02:41:52;98847.72;;;24.44;64.94
26376;BME280;30544;42.196;24.336;2022-07-06T02:44:19;98843.34;;;24.25;66.62
26376;BME280;30544;42.196;24.336;2022-07-06T02:46:47;98830.94;;;23.76;68.48
26376;BME280;30544;42.196;24.336;2022-07-06T02:49:14;98847.66;;;23.90;68.62
26376;BME280;30544;42.196;24.336;2022-07-06T02:51:41;98844.81;;;23.90;68.60
26376;BME280;30544;42.196;24.336;2022-07-06T02:54:08;98854.19;;;23.82;68.88
26376;BME280;30544;42.196;24.336;2022-07-06T02:56:35;98863.78;;;23.68;69.28
26376;BME280;30544;42.196;24.336;2022-07-06T02:59:02;98857.50;;;23.84;68.96
26376;BME280;30544;42.196;24.336;2022-07-06T03:01:29;98870.69;;;23.80;68.88
26376;BME280;30544;42.196;24.336;2022-07-06T03:03:57;98869.16;;;23.82;69.11
26376;BME280;30544;42.196;24.336;2022-07-06T03:06:24;98866.28;;;23.91;68.33
26376;BME280;30544;42.196;24.336;2022-07-06T03:08:50;98873.03;;;23.78;68.88
26376;BME280;30544;42.196;24.336;2022-07-06T03:11:18;98879.53;;;23.78;68.18
26376;BME280;30544;42.196;24.336;2022-07-06T03:13:44;98857.66;;;23.87;68.42
26376;BME280;30544;42.196;24.336;2022-07-06T03:16:11;98872.47;;;23.84;68.53
26376;BME280;30544;42.196;24.336;2022-07-06T03:18:38;98867.88;;;23.80;68.50
26376;BME280;30544;42.196;24.336;2022-07-06T03:21:07;98868.28;;;24.11;66.96
26376;BME280;30544;42.196;24.336;2022-07-06T03:23:34;98869.81;;;23.88;68.07
26376;BME280;30544;42.196;24.336;2022-07-06T03:26:01;98864.97;;;23.88;67.76
26376;BME280;30544;42.196;24.336;2022-07-06T03:28:28;98875.13;;;23.89;67.62
26376;BME280;30544;42.196;24.336;2022-07-06T03:30:55;98863.72;;;23.98;66.91
26376;BME280;30544;42.196;24.336;2022-07-06T03:33:22;98854.69;;;24.05;67.11
26376;BME280;30544;42.196;24.336;2022-07-06T03:35:49;98867.28;;;24.37;65.94
26376;BME280;30544;42.196;24.336;2022-07-06T03:38:17;98868.50;;;24.06;67.05
26376;BME280;30544;42.196;24.336;2022-07-06T03:40:44;98860.16;;;24.10;66.80
26376;BME280;30544;42.196;24.336;2022-07-06T03:43:11;98868.25;;;24.20;66.82
26376;BME280;30544;42.196;24.336;2022-07-06T03:45:38;98866.38;;;24.03;67.05
26376;BME280;30544;42.196;24.336;2022-07-06T03:48:08;98866.81;;;23.84;68.11
26376;BME280;30544;42.196;24.336;2022-07-06T03:50:35;98855.91;;;23.74;68.81
26376;BME280;30544;42.196;24.336;2022-07-06T03:53:02;98868.75;;;23.72;68.73
26376;BME280;30544;42.196;24.336;2022-07-06T03:55:30;98852.88;;;23.50;69.62
26376;BME280;30544;42.196;24.336;2022-07-06T03:57:57;98859.06;;;23.43;70.60
26376;BME280;30544;42.196;24.336;2022-07-06T04:00:24;98871.94;;;23.70;69.32
26376;BME280;30544;42.196;24.336;2022-07-06T04:02:51;98872.78;;;23.70;69.25
26376;BME280;30544;42.196;24.336;2022-07-06T04:05:18;98860.53;;;23.49;70.81
26376;BME280;30544;42.196;24.336;2022-07-06T04:07:46;98872.00;;;23.82;69.22
26376;BME280;30544;42.196;24.336;2022-07-06T04:10:13;98876.66;;;23.87;69.36
26376;BME280;30544;42.196;24.336;2022-07-06T04:12:41;98874.09;;;24.15;67.82
26376;BME280;30544;42.196;24.336;2022-07-06T04:15:11;98883.38;;;24.03;67.90
26376;BME280;30544;42.196;24.336;2022-07-06T04:17:38;98875.84;;;24.07;67.56
26376;BME280;30544;42.196;24.336;2022-07-06T04:20:22;98883.75;;;24.14;67.90
26376;BME280;30544;42.196;24.336;2022-07-06T04:22:50;98878.41;;;24.21;67.44
26376;BME280;30544;42.196;24.336;2022-07-06T04:25:17;98869.25;;;24.57;66.01
26376;BME280;30544;42.196;24.336;2022-07-06T04:27:45;98881.31;;;24.66;65.96
26376;BME280;30544;42.196;24.336;2022-07-06T04:30:12;98885.56;;;24.60;65.94
26376;BME280;30544;42.196;24.336;2022-07-06T04:32:39;98886.09;;;24.74;65.85
26376;BME280;30544;42.196;24.336;2022-07-06T04:35:07;98875.84;;;24.94;64.86
26376;BME280;30544;42.196;24.336;2022-07-06T04:37:34;98876.16;;;24.80;64.94
26376;BME280;30544;42.196;24.336;2022-07-06T04:40:01;98867.66;;;24.80;65.29
26376;BME280;30544;42.196;24.336;2022-07-06T04:42:28;98889.56;;;24.92;64.79
26376;BME280;30544;42.196;24.336;2022-07-06T04:44:57;98886.44;;;24.85;64.62
26376;BME280;30544;42.196;24.336;2022-07-06T04:47:24;98892.47;;;24.83;65.62
26376;BME280;30544;42.196;24.336;2022-07-06T04:49:50;98897.19;;;24.79;64.73
26376;BME280;30544;42.196;24.336;2022-07-06T04:52:17;98903.09;;;24.74;65.23
26376;BME280;30544;42.196;24.336;2022-07-06T04:54:44;98894.34;;;24.79;65.19
26376;BME280;30544;42.196;24.336;2022-07-06T04:57:11;98888.59;;;24.88;64.73
26376;BME280;30544;42.196;24.336;2022-07-06T04:59:38;98892.66;;;24.66;65.35
26376;BME280;30544;42.196;24.336;2022-07-06T05:02:09;98896.94;;;24.72;64.76
26376;BME280;30544;42.196;24.336;2022-07-06T05:04:36;98901.09;;;24.75;64.67
26376;BME280;30544;42.196;24.336;2022-07-06T05:07:03;98900.31;;;24.86;64.50
26376;BME280;30544;42.196;24.336;2022-07-06T05:09:30;98899.03;;;24.63;64.49
26376;BME280;30544;42.196;24.336;2022-07-06T05:11:57;98907.94;;;24.74;64.50
26376;BME280;30544;42.196;24.336;2022-07-06T05:14:24;98910.66;;;24.82;63.99
26376;BME280;30544;42.196;24.336;2022-07-06T05:16:51;98913.47;;;24.70;64.14
26376;BME280;30544;42.196;24.336;2022-07-06T05:19:19;98912.31;;;24.71;64.28
26376;BME280;30544;42.196;24.336;2022-07-06T05:21:46;98919.31;;;24.86;64.11
26376;BME280;30544;42.196;24.336;2022-07-06T05:24:13;98916.50;;;24.86;63.70
26376;BME280;30544;42.196;24.336;2022-07-06T05:26:40;98919.53;;;24.81;64.04
26376;BME280;30544;42.196;24.336;2022-07-06T05:29:07;98926.34;;;24.47;65.10
26376;BME280;30544;42.196;24.336;2022-07-06T05:31:35;98927.00;;;24.52;64.45
26376;BME280;30544;42.196;24.336;2022-07-06T05:34:01;98926.69;;;24.45;65.06
26376;BME280;30544;42.196;24.336;2022-07-06T05:36:30;98935.34;;;24.70;64.06
26376;BME280;30544;42.196;24.336;2022-07-06T05:38:57;98937.69;;;25.01;63.40
26376;BME280;30544;42.196;24.336;2022-07-06T05:41:24;98937.66;;;24.68;64.32
26376;BME280;30544;42.196;24.336;2022-07-06T05:43:51;98937.38;;;25.14;63.62
26376;BME280;30544;42.196;24.336;2022-07-06T05:46:17;98948.53;;;25.19;63.44
26376;BME280;30544;42.196;24.336;2022-07-06T05:48:44;98948.06;;;24.97;63.63
26376;BME280;30544;42.196;24.336;2022-07-06T05:51:30;98944.19;;;25.01;63.59
26376;BME280;30544;42.196;24.336;2022-07-06T05:53:57;98944.47;;;25.08;63.37
26376;BME280;30544;42.196;24.336;2022-07-06T05:56:27;98941.91;;;25.28;62.16
26376;BME280;30544;42.196;24.336;2022-07-06T05:58:54;98948.44;;;25.40;62.21
26376;BME280;30544;42.196;24.336;2022-07-06T06:01:21;98947.97;;;25.63;61.83
26376;BME280;30544;42.196;24.336;2022-07-06T06:03:48;98938.97;;;25.48;62.19
26376;BME280;30544;42.196;24.336;2022-07-06T06:06:16;98943.94;;;25.64;62.27
26376;BME280;30544;42.196;24.336;2022-07-06T06:08:44;98946.00;;;25.75;61.62
26376;BME280;30544;42.196;24.336;2022-07-06T06:11:11;98944.34;;;25.74;61.60
26376;BME280;30544;42.196;24.336;2022-07-06T06:13:38;98946.22;;;25.58;61.97
26376;BME280;30544;42.196;24.336;2022-07-06T06:16:05;98951.63;;;25.51;61.93
26376;BME280;30544;42.196;24.336;2022-07-06T06:18:31;98949.53;;;25.60;61.72
26376;BME280;30544;42.196;24.336;2022-07-06T06:20:58;98945.50;;;25.61;62.04
26376;BME280;30544;42.196;24.336;2022-07-06T06:23:25;98945.19;;;25.75;61.57
26376;BME280;30544;42.196;24.336;2022-07-06T06:25:53;98947.53;;;25.85;60.89
26376;BME280;30544;42.196;24.336;2022-07-06T06:28:20;98933.94;;;25.78;60.29
26376;BME280;30544;42.196;24.336;2022-07-06T06:30:47;98944.94;;;25.92;60.14
26376;BME280;30544;42.196;24.336;2022-07-06T06:33:15;98933.78;;;26.12;59.39
26376;BME280;30544;42.196;24.336;2022-07-06T06:35:43;98944.00;;;25.88;60.56
26376;BME280;30544;42.196;24.336;2022-07-06T06:38:11;98934.81;;;26.31;58.83
26376;BME280;30544;42.196;24.336;2022-07-06T06:40:38;98937.81;;;26.11;60.14
26376;BME280;30544;42.196;24.336;2022-07-06T06:43:06;98937.03;;;26.50;58.70
26376;BME280;30544;42.196;24.336;2022-07-06T06:45:33;98937.13;;;26.54;58.36
26376;BME280;30544;42.196;24.336;2022-07-06T06:48:00;98936.25;;;26.25;58.71
26376;BME280;30544;42.196;24.336;2022-07-06T06:50:27;98936.97;;;26.22;58.80
26376;BME280;30544;42.196;24.336;2022-07-06T06:52:54;98926.81;;;26.61;58.86
26376;BME280;30544;42.196;24.336;2022-07-06T06:55:21;98932.88;;;26.88;56.94
26376;BME280;30544;42.196;24.336;2022-07-06T06:57:48;98926.19;;;27.24;55.89
26376;BME280;30544;42.196;24.336;2022-07-06T07:00:16;98929.56;;;27.30;55.52
26376;BME280;30544;42.196;24.336;2022-07-06T07:02:44;98921.34;;;27.56;55.85
26376;BME280;30544;42.196;24.336;2022-07-06T07:05:12;98923.22;;;27.05;56.06
26376;BME280;30544;42.196;24.336;2022-07-06T07:07:39;98918.75;;;27.51;56.48
26376;BME280;30544;42.196;24.336;2022-07-06T07:10:07;98914.16;;;27.62;55.75
26376;BME280;30544;42.196;24.336;2022-07-06T07:12:34;98909.41;;;27.66;54.75
26376;BME280;30544;42.196;24.336;2022-07-06T07:15:01;98910.63;;;28.00;53.07
26376;BME280;30544;42.196;24.336;2022-07-06T07:17:29;98915.38;;;27.77;54.25
26376;BME280;30544;42.196;24.336;2022-07-06T07:19:56;98914.91;;;27.91;53.45
26376;BME280;30544;42.196;24.336;2022-07-06T07:22:23;98903.19;;;27.96;54.00
26376;BME280;30544;42.196;24.336;2022-07-06T07:24:50;98906.72;;;27.57;53.45
26376;BME280;30544;42.196;24.336;2022-07-06T07:27:17;98913.75;;;28.11;52.97
26376;BME280;30544;42.196;24.336;2022-07-06T07:29:44;98907.47;;;28.56;51.36
26376;BME280;30544;42.196;24.336;2022-07-06T07:32:11;98915.38;;;28.12;51.49
26376;BME280;30544;42.196;24.336;2022-07-06T07:34:39;98906.25;;;27.71;52.83
26376;BME280;30544;42.196;24.336;2022-07-06T07:37:06;98913.97;;;28.22;50.72
26376;BME280;30544;42.196;24.336;2022-07-06T07:39:34;98907.34;;;28.53;50.79
26376;BME280;30544;42.196;24.336;2022-07-06T07:42:01;98898.34;;;29.31;48.86
26376;BME280;30544;42.196;24.336;2022-07-06T07:44:28;98920.69;;;29.26;49.13
26376;BME280;30544;42.196;24.336;2022-07-06T07:46:54;98904.31;;;29.91;48.27
26376;BME280;30544;42.196;24.336;2022-07-06T07:49:21;98901.63;;;30.59;45.54
26376;BME280;30544;42.196;24.336;2022-07-06T07:51:50;98905.78;;;29.82;47.25
26376;BME280;30544;42.196;24.336;2022-07-06T07:54:17;98905.44;;;30.10;47.25
26376;BME280;30544;42.196;24.336;2022-07-06T07:56:44;98911.22;;;29.22;48.18
26376;BME280;30544;42.196;24.336;2022-07-06T07:59:10;98906.50;;;29.52;47.36
26376;BME280;30544;42.196;24.336;2022-07-06T08:01:37;98910.06;;;28.65;48.96
26376;BME280;30544;42.196;24.336;2022-07-06T08:04:04;98914.66;;;28.89;48.70
26376;BME280;30544;42.196;24.336;2022-07-06T08:06:31;98910.22;;;28.53;50.16
26376;BME280;30544;42.196;24.336;2022-07-06T08:09:00;98902.31;;;29.23;49.65
26376;BME280;30544;42.196;24.336;2022-07-06T08:11:28;98905.94;;;29.01;48.58
26376;BME280;30544;42.196;24.336;2022-07-06T08:13:55;98914.53;;;29.24;47.77
26376;BME280;30544;42.196;24.336;2022-07-06T08:16:22;98902.78;;;29.48;48.25
26376;BME280;30544;42.196;24.336;2022-07-06T08:18:49;98908.38;;;29.45;47.00
26376;BME280;30544;42.196;24.336;2022-07-06T08:21:16;98920.72;;;28.68;47.92
26376;BME280;30544;42.196;24.336;2022-07-06T08:23:43;98922.25;;;29.65;46.81
26376;BME280;30544;42.196;24.336;2022-07-06T08:26:11;98920.25;;;30.45;44.52
26376;BME280;30544;42.196;24.336;2022-07-06T08:28:38;98915.22;;;30.39;44.03
26376;BME280;30544;42.196;24.336;2022-07-06T08:31:05;98927.56;;;29.90;45.28
26376;BME280;30544;42.196;24.336;2022-07-06T08:33:32;98916.28;;;29.74;46.44
26376;BME280;30544;42.196;24.336;2022-07-06T08:35:59;98907.63;;;30.50;44.44
26376;BME280;30544;42.196;24.336;2022-07-06T08:38:26;98911.94;;;30.07;44.08
26376;BME280;30544;42.196;24.336;2022-07-06T08:40:53;98912.59;;;30.83;43.18
26376;BME280;30544;42.196;24.336;2022-07-06T08:43:22;98914.41;;;30.38;43.75
26376;BME280;30544;42.196;24.336;2022-07-06T08:45:50;98904.25;;;30.41;42.96
26376;BME280;30544;42.196;24.336;2022-07-06T08:48:20;98905.69;;;29.75;43.47
26376;BME280;30544;42.196;24.336;2022-07-06T08:50:49;98917.84;;;29.72;44.71
26376;BME280;30544;42.196;24.336;2022-07-06T08:53:17;98912.69;;;29.81;43.99
26376;BME280;30544;42.196;24.336;2022-07-06T08:55:44;98893.72;;;30.48;42.57
26376;BME280;30544;42.196;24.336;2022-07-06T08:58:11;98896.72;;;30.59;42.77
26376;BME280;30544;42.196;24.336;2022-07-06T09:00:40;98905.53;;;31.48;42.59
26376;BME280;30544;42.196;24.336;2022-07-06T09:03:07;98901.91;;;31.54;40.39
26376;BME280;30544;42.196;24.336;2022-07-06T09:05:39;98902.44;;;31.70;40.26
26376;BME280;30544;42.196;24.336;2022-07-06T09:08:06;98899.84;;;31.55;40.40
26376;BME280;30544;42.196;24.336;2022-07-06T09:10:33;98907.97;;;31.90;39.67
26376;BME280;30544;42.196;24.336;2022-07-06T09:13:04;98892.59;;;31.64;41.19
26376;BME280;30544;42.196;24.336;2022-07-06T09:15:31;98892.84;;;31.93;40.33
26376;BME280;30544;42.196;24.336;2022-07-06T09:17:59;98897.09;;;31.21;41.71
26376;BME280;30544;42.196;24.336;2022-07-06T09:20:26;98898.72;;;31.63;41.39
26376;BME280;30544;42.196;24.336;2022-07-06T09:22:57;98895.72;;;31.08;42.32
26376;BME280;30544;42.196;24.336;2022-07-06T09:25:25;98901.09;;;30.49;42.22
26376;BME280;30544;42.196;24.336;2022-07-06T09:27:53;98893.25;;;31.47;41.11
26376;BME280;30544;42.196;24.336;2022-07-06T09:30:22;98895.63;;;30.67;42.77
26376;BME280;30544;42.196;24.336;2022-07-06T09:32:53;98891.09;;;30.63;43.32
26376;BME280;30544;42.196;24.336;2022-07-06T09:35:23;98884.38;;;30.85;41.99
26376;BME280;30544;42.196;24.336;2022-07-06T09:38:01;98885.41;;;30.40;43.45
26376;BME280;30544;42.196;24.336;2022-07-06T09:40:30;98886.22;;;31.04;42.50
26376;BME280;30544;42.196;24.336;2022-07-06T09:43:14;98897.25;;;30.08;43.04
26376;BME280;30544;42.196;24.336;2022-07-06T09:45:43;98885.44;;;30.70;42.18
26376;BME280;30544;42.196;24.336;2022-07-06T09:48:12;98887.50;;;30.73;42.80
26376;BME280;30544;42.196;24.336;2022-07-06T09:50:45;98874.63;;;30.90;42.09
26376;BME280;30544;42.196;24.336;2022-07-06T09:53:13;98876.50;;;31.08;40.95
26376;BME280;30544;42.196;24.336;2022-07-06T09:55:44;98874.34;;;31.83;40.66
26376;BME280;30544;42.196;24.336;2022-07-06T09:58:12;98850.19;;;31.84;39.73
26376;BME280;30544;42.196;24.336;2022-07-06T10:00:40;98862.88;;;32.49;38.77
26376;BME280;30544;42.196;24.336;2022-07-06T10:03:07;98854.16;;;33.50;36.81
26376;BME280;30544;42.196;24.336;2022-07-06T10:05:36;98854.53;;;33.31;37.22
26376;BME280;30544;42.196;24.336;2022-07-06T10:08:06;98845.06;;;32.98;38.06
26376;BME280;30544;42.196;24.336;2022-07-06T10:10:35;98840.97;;;33.17;37.38
26376;BME280;30544;42.196;24.336;2022-07-06T10:13:03;98841.19;;;32.51;38.67
26376;BME280;30544;42.196;24.336;2022-07-06T10:15:31;98847.50;;;32.96;38.35
26376;BME280;30544;42.196;24.336;2022-07-06T10:17:59;98838.16;;;33.99;37.59
26376;BME280;30544;42.196;24.336;2022-07-06T10:20:29;98846.38;;;33.54;37.13
26376;BME280;30544;42.196;24.336;2022-07-06T10:22:58;98831.94;;;33.18;38.71
26376;BME280;30544;42.196;24.336;2022-07-06T10:25:28;98833.56;;;32.98;38.24
26376;BME280;30544;42.196;24.336;2022-07-06T10:27:55;98835.25;;;32.23;40.20
26376;BME280;30544;42.196;24.336;2022-07-06T10:30:24;98829.22;;;31.73;40.98
26376;BME280;30544;42.196;24.336;2022-07-06T10:32:51;98835.31;;;31.71;40.55
26376;BME280;30544;42.196;24.336;2022-07-06T10:35:19;98832.00;;;31.62;41.04
26376;BME280;30544;42.196;24.336;2022-07-06T10:38:03;98826.41;;;32.46;40.47
26376;BME280;30544;42.196;24.336;2022-07-06T10:40:33;98821.72;;;32.13;39.26
26376;BME280;30544;42.196;24.336;2022-07-06T10:43:23;98823.97;;;32.58;39.09
26376;BME280;30544;42.196;24.336;2022-07-06T10:45:57;98813.94;;;33.36;37.44
26376;BME280;30544;42.196;24.336;2022-07-06T10:48:23;98806.53;;;33.10;37.63
26376;BME280;30544;42.196;24.336;2022-07-06T10:50:52;98816.38;;;33.12;37.69
26376;BME280;30544;42.196;24.336;2022-07-06T10:53:23;98807.78;;;33.34;36.44
26376;BME280;30544;42.196;24.336;2022-07-06T10:55:52;98803.22;;;33.08;37.73
26376;BME280;30544;42.196;24.336;2022-07-06T10:58:46;98813.06;;;32.06;39.26
26376;BME280;30544;42.196;24.336;2022-07-06T11:01:17;98798.69;;;31.98;40.13
26376;BME280;30544;42.196;24.336;2022-07-06T11:03:44;98798.78;;;31.58;41.81
26376;BME280;30544;42.196;24.336;2022-07-06T11:06:16;98815.53;;;31.52;42.11
26376;BME280;30544;42.196;24.336;2022-07-06T11:08:54;98813.53;;;32.18;41.19
26376;BME280;30544;42.196;24.336;2022-07-06T11:11:25;98815.53;;;31.52;42.55
26376;BME280;30544;42.196;24.336;2022-07-06T11:13:58;98806.06;;;31.45;42.53
26376;BME280;30544;42.196;24.336;2022-07-06T11:16:28;98806.38;;;31.84;42.13
26376;BME280;30544;42.196;24.336;2022-07-06T11:19:01;98805.66;;;32.01;41.85
26376;BME280;30544;42.196;24.336;2022-07-06T11:21:36;98817.50;;;31.92;42.50
26376;BME280;30544;42.196;24.336;2022-07-06T11:24:05;98801.47;;;32.60;41.70
26376;BME280;30544;42.196;24.336;2022-07-06T11:26:34;98814.72;;;33.22;40.31
26376;BME280;30544;42.196;24.336;2022-07-06T11:29:03;98816.94;;;32.42;41.32
26376;BME280;30544;42.196;24.336;2022-07-06T11:31:33;98812.75;;;32.25;41.84
26376;BME280;30544;42.196;24.336;2022-07-06T11:34:00;98803.22;;;33.83;39.24
26376;BME280;30544;42.196;24.336;2022-07-06T11:36:27;98802.38;;;32.97;40.04
26376;BME280;30544;42.196;24.336;2022-07-06T11:38:54;98798.28;;;32.94;40.81
26376;BME280;30544;42.196;24.336;2022-07-06T11:41:21;98794.19;;;33.80;39.64
26376;BME280;30544;42.196;24.336;2022-07-06T11:43:50;98785.94;;;34.04;39.59
26376;BME280;30544;42.196;24.336;2022-07-06T11:46:22;98783.88;;;34.08;39.56
26376;BME280;30544;42.196;24.336;2022-07-06T11:48:49;98785.88;;;34.25;37.18
26376;BME280;30544;42.196;24.336;2022-07-06T11:51:17;98790.94;;;33.78;38.85
26376;BME280;30544;42.196;24.336;2022-07-06T11:53:45;98785.88;;;32.72;39.73
26376;BME280;30544;42.196;24.336;2022-07-06T11:56:13;98786.84;;;33.30;38.51
26376;BME280;30544;42.196;24.336;2022-07-06T11:58:41;98784.03;;;32.21;40.04
26376;BME280;30544;42.196;24.336;2022-07-06T12:01:11;98788.56;;;32.22;39.35
26376;BME280;30544;42.196;24.336;2022-07-06T12:03:38;98777.88;;;32.12;39.87
26376;BME280;30544;42.196;24.336;2022-07-06T12:06:09;98775.66;;;32.75;38.99
26376;BME280;30544;42.196;24.336;2022-07-06T12:08:42;98767.97;;;31.99;40.69
26376;BME280;30544;42.196;24.336;2022-07-06T12:11:10;98772.31;;;32.58;38.60
26376;BME280;30544;42.196;24.336;2022-07-06T12:13:37;98756.03;;;31.90;40.23
26376;BME280;30544;42.196;24.336;2022-07-06T12:16:13;98770.81;;;33.14;37.98
26376;BME280;30544;42.196;24.336;2022-07-06T12:18:41;98764.22;;;32.89;38.25
26376;BME280;30544;42.196;24.336;2022-07-06T12:21:10;98765.06;;;33.21;37.66
26376;BME280;30544;42.196;24.336;2022-07-06T12:23:39;98758.50;;;32.96;38.13
26376;BME280;30544;42.196;24.336;2022-07-06T12:26:06;98766.97;;;32.46;38.51
26376;BME280;30544;42.196;24.336;2022-07-06T12:28:34;98761.53;;;32.23;39.37
26376;BME280;30544;42.196;24.336;2022-07-06T12:31:01;98767.50;;;32.84;38.05
26376;BME280;30544;42.196;24.336;2022-07-06T12:33:29;98758.63;;;32.16;38.31
26376;BME280;30544;42.196;24.336;2022-07-06T12:35:56;98762.56;;;31.83;39.58
26376;BME280;30544;42.196;24.336;2022-07-06T12:38:27;98754.78;;;32.92;38.58
26376;BME280;30544;42.196;24.336;2022-07-06T12:40:55;98755.97;;;32.73;37.43
26376;BME280;30544;42.196;24.336;2022-07-06T12:43:37;98745.72;;;32.69;37.41
26376;BME280;30544;42.196;24.336;2022-07-06T12:46:25;98747.81;;;32.82;36.78
26376;BME280;30544;42.196;24.336;2022-07-06T12:48:55;98745.22;;;32.38;38.62
26376;BME280;30544;42.196;24.336;2022-07-06T12:51:22;98748.59;;;32.72;37.94
26376;BME280;30544;42.196;24.336;2022-07-06T12:53:50;98754.78;;;32.92;37.56
26376;BME280;30544;42.196;24.336;2022-07-06T12:56:17;98745.72;;;33.83;35.90